Lebanon, Pennsylvania
Current Conditions -  °F | °C
As of 2:22 PM on Monday 22 Dec 2014 (Local Time) from KMUI Reporting Station
Broken Clouds Broken Clouds  
Wind Chill: 36°   Ceiling: 3700
Heat Index: 36°   Visibility: 10mi
Dew Point: 28°   Wind: 2mph
Humidity: 75%   Direction: NA
Pressure: 30.2"   Gusts: NA
Location:  40.33°N, 76.42°W
Report Text: KMUI 221922Z AUTO VRB02KT 10SM SCT020 BKN037 02/M02 A3020 RMK AO2
Loading
Personal Weather Stations






























Interactive Weather Map New forecast layout! Learn more

10-Day Weather Forecast

Advertisements
Track Severe Weather on mobile